Aérodrome :
LOGIN :

S'inscrire | Disclaimer

   EN    FR    IT 

 










Légende :    VFR   VFR Marginal   IFR   IFR Intensif   IFR Très Intensif
Visi : 
Plafond : 
>= 8 km
>= 3000ft
5 à 8 km
1000 à 3000 ft
1500m à 5 km
500 à 1000 ft
800 à 1500m
200 à 500 ft
< 800m
< 200 ft
Symboles :   Orages  Brouillard  Fortes neiges  Fortes précipitations  Vent > 20 kt
SIGMETs :   Divers  Orages  Givrage  Turbulence  Onde Orograph.  Cendres Volcan.






- Altitude de l'aérodrome : 1058 ft
- Code IATA : SCN


EDDR - Saarbrücken

DERNIER METAR :
  • 220120Z AUTO 22018KT 190V250 9999 -RA BKN007 OVC010 08/07 Q1005

METARs EXPIRÉS :
  • 220050Z AUTO 22017KT 8000 -RADZ OVC007 08/07 Q1005
  • 220020Z AUTO 22013G23KT 6000 -RA BKN007 07/07 Q1006
  • 212350Z AUTO 21015KT 9999 -RA OVC007 07/07 Q1006
  • 212320Z AUTO 22014G26KT 9999 -RA BKN007 OVC010 07/06 Q1007
  • 212250Z AUTO 22013KT 9999 -RA BKN007 OVC010 07/06 Q1007
  • 212220Z AUTO 22012KT 9999 -RA SCT009 BKN014 07/06 Q1008
  • 212150Z AUTO 21014KT 9999 -RA BKN017 06/05 Q1008
  • 212120Z AUTO 21012KT 9999 -RADZ BKN019 06/05 Q1009 TEMPO 21015G25KT RA BKN014
  • 212050Z AUTO 21013KT 9999 -RA BKN019 BKN045 07/05 Q1010 TEMPO 21015G25KT RA BKN014

TAF TAF EDDR
Valide du 22 à 00h jusqu'au 23 à 00h UTC


212300Z 2200/2224 22013KT 9999 OVC012
TEMPO 2200/2210 21015G25KT RA BKN008
PROB40
TEMPO 2202/2210 21020G30KT 4000 RADZ
BECMG 2210/2212 21020G30KT BKN015
TEMPO 2213/2219 21025G35KT RA BKN012
PROB30
TEMPO 2219/2221 23035G50KT SHRA BKN020CB



MET'MAP, la Météo Aéronautique d'un coup d'oeil ! - Copyright ORBIFLY Décembre 2007 - Disclaimer

ORBIFLY MET'MAP TEAM :

Programmation & Développement : Alexandra Zaïnal
Sur une idée originale de : Baudouin d'Aumeries
Soutien technique & logistique : Manuel Goepfert
Assistance : Marc-Olivier Méhu




SOURCES & CREDITS :

   NOAA